createdAt,value
2023-02-18T00:01:44.904Z,15.20
2023-02-18T00:04:12.909Z,15.23
2023-02-18T00:06:45.895Z,15.22
2023-02-18T00:09:17.350Z,15.23
2023-02-18T00:11:49.152Z,15.18
2023-02-18T00:14:55.114Z,15.25
2023-02-18T00:17:42.640Z,15.19
2023-02-18T00:20:11.847Z,15.19
2023-02-18T00:22:52.265Z,15.16
2023-02-18T00:25:20.266Z,15.16
2023-02-18T00:27:51.287Z,15.15
2023-02-18T00:30:22.284Z,15.15
2023-02-18T00:32:52.242Z,15.14
2023-02-18T00:35:22.853Z,15.13
2023-02-18T00:37:56.002Z,15.14
2023-02-18T00:40:24.073Z,15.18
2023-02-18T00:43:00.922Z,15.13
2023-02-18T00:45:45.548Z,15.14
2023-02-18T00:48:16.427Z,15.12
2023-02-18T00:50:44.768Z,15.16
2023-02-18T00:53:12.733Z,15.17
2023-02-18T00:55:41.078Z,15.17
2023-02-18T00:58:10.451Z,15.16
2023-02-18T01:00:39.823Z,15.12
2023-02-18T01:03:10.060Z,15.16
2023-02-18T01:05:38.185Z,15.15
2023-02-18T01:08:08.161Z,15.09
2023-02-18T01:10:36.223Z,15.00
2023-02-18T01:13:06.781Z,15.15
2023-02-18T01:15:37.806Z,15.24
2023-02-18T01:18:07.762Z,15.21
2023-02-18T01:20:38.646Z,15.24
2023-02-18T01:23:10.232Z,15.16
2023-02-18T01:25:41.863Z,15.28
2023-02-18T01:28:11.453Z,15.27
2023-02-18T01:30:45.710Z,15.30
2023-02-18T01:33:13.760Z,15.28
2023-02-18T01:35:41.818Z,15.20
2023-02-18T01:38:13.110Z,15.31
2023-02-18T01:41:07.553Z,15.34
2023-02-18T01:43:35.693Z,15.33
2023-02-18T01:46:24.236Z,15.33
2023-02-18T01:49:00.746Z,15.30
2023-02-18T01:51:59.625Z,15.34
2023-02-18T01:54:57.250Z,15.35
2023-02-18T01:57:30.730Z,15.30
2023-02-18T02:00:02.133Z,15.38
2023-02-18T02:04:23.228Z,15.34
2023-02-18T02:10:10.296Z,15.31
2023-02-18T02:12:45.190Z,15.32
2023-02-18T02:15:34.507Z,15.34
2023-02-18T02:18:23.202Z,15.33
2023-02-18T02:21:34.385Z,15.43
2023-02-18T02:24:27.315Z,15.41
2023-02-18T02:27:15.995Z,15.33
2023-02-18T02:30:28.460Z,15.45
2023-02-18T02:33:24.304Z,15.46
2023-02-18T02:35:56.711Z,15.38
2023-02-18T02:38:27.924Z,15.42
2023-02-18T02:40:58.857Z,15.43
2023-02-18T02:43:34.143Z,15.44
2023-02-18T02:46:04.741Z,15.42
2023-02-18T02:48:36.949Z,15.45
2023-02-18T02:51:10.856Z,15.37
2023-02-18T02:53:43.988Z,15.43
2023-02-18T02:56:16.149Z,15.37
2023-02-18T02:58:46.535Z,15.41
2023-02-18T03:01:25.632Z,15.43
2023-02-18T03:04:17.488Z,15.49
2023-02-18T03:10:14.148Z,15.47
2023-02-18T03:12:47.410Z,15.42
2023-02-18T03:15:19.875Z,15.39
2023-02-18T03:17:55.067Z,15.43
2023-02-18T03:20:27.020Z,15.46
2023-02-18T03:22:57.717Z,15.43
2023-02-18T03:25:29.411Z,15.42
2023-02-18T03:27:59.850Z,15.43
2023-02-18T03:30:41.431Z,15.40
2023-02-18T03:33:10.718Z,15.41
2023-02-18T03:35:39.319Z,15.44
2023-02-18T03:38:15.863Z,15.45
2023-02-18T03:40:43.911Z,15.46
2023-02-18T03:43:14.643Z,15.39
2023-02-18T03:45:42.709Z,15.34
2023-02-18T03:48:14.428Z,15.35
2023-02-18T03:50:42.435Z,15.47
2023-02-18T03:53:17.209Z,15.46
2023-02-18T03:55:48.713Z,15.43
2023-02-18T03:58:16.915Z,15.37
2023-02-18T04:00:45.224Z,15.41
2023-02-18T04:03:14.039Z,15.34
2023-02-18T04:05:42.015Z,15.33
2023-02-18T04:08:10.289Z,15.40
2023-02-18T04:13:23.205Z,15.38
2023-02-18T04:15:52.849Z,15.40
2023-02-18T04:18:23.697Z,15.42
2023-02-18T04:20:52.831Z,15.33
2023-02-18T04:23:20.782Z,15.41
2023-02-18T04:25:59.288Z,15.40
2023-02-18T04:28:33.167Z,15.34
2023-02-18T04:31:01.228Z,15.42
2023-02-18T04:33:29.196Z,15.34
2023-02-18T04:36:06.303Z,15.33
2023-02-18T04:38:36.964Z,15.38
2023-02-18T04:41:09.286Z,15.36
2023-02-18T04:43:37.356Z,15.35
2023-02-18T04:46:08.562Z,15.39
2023-02-18T04:48:37.384Z,15.38
2023-02-18T04:51:05.842Z,15.40
2023-02-18T04:53:33.890Z,15.41
2023-02-18T04:56:02.148Z,15.42
2023-02-18T04:58:32.231Z,15.43
2023-02-18T05:01:01.826Z,15.46
2023-02-18T05:03:30.151Z,15.45
2023-02-18T05:05:59.622Z,15.43
2023-02-18T05:08:28.501Z,15.38
2023-02-18T05:10:59.054Z,15.36
2023-02-18T05:13:27.233Z,15.40
2023-02-18T05:15:56.914Z,15.46
2023-02-18T05:18:28.201Z,15.40
2023-02-18T05:20:58.373Z,15.27
2023-02-18T05:23:33.148Z,15.11
2023-02-18T05:26:12.464Z,15.16
2023-02-18T05:28:42.294Z,15.03
2023-02-18T05:31:15.147Z,14.93
2023-02-18T05:33:43.530Z,14.95
2023-02-18T05:36:11.512Z,14.87
2023-02-18T05:38:39.575Z,14.94
2023-02-18T05:41:15.798Z,14.87
2023-02-18T05:44:02.978Z,14.97
2023-02-18T05:46:32.415Z,14.92
2023-02-18T05:49:00.838Z,14.98
2023-02-18T05:51:30.449Z,14.94
2023-02-18T05:53:59.583Z,14.96
2023-02-18T05:56:28.138Z,14.90
2023-02-18T05:58:58.776Z,14.94
2023-02-18T06:01:27.184Z,14.96
2023-02-18T06:03:57.766Z,14.88
2023-02-18T06:06:29.751Z,14.93
2023-02-18T06:08:59.586Z,14.95
2023-02-18T06:11:29.328Z,14.95
2023-02-18T06:13:57.455Z,14.94
2023-02-18T06:16:25.423Z,15.04
2023-02-18T06:18:56.439Z,14.99
2023-02-18T06:21:25.134Z,15.09
2023-02-18T06:23:55.694Z,14.93
2023-02-18T06:26:24.970Z,15.04
2023-02-18T06:28:54.433Z,15.08
2023-02-18T06:31:24.807Z,15.12
2023-02-18T06:33:52.971Z,15.00
2023-02-18T06:36:24.950Z,14.89
2023-02-18T06:38:54.608Z,15.06
2023-02-18T06:41:22.708Z,15.09
2023-02-18T06:43:53.797Z,15.07
2023-02-18T06:46:24.188Z,14.93
2023-02-18T06:48:52.435Z,14.88
2023-02-18T06:51:20.508Z,15.02
2023-02-18T06:53:50.324Z,15.05
2023-02-18T06:56:18.544Z,14.97
2023-02-18T06:58:48.946Z,15.03
2023-02-18T07:04:00.371Z,14.92
2023-02-18T07:06:31.071Z,14.87
2023-02-18T07:09:02.597Z,14.89
2023-02-18T07:11:34.703Z,14.84
2023-02-18T07:14:03.049Z,14.78
2023-02-18T07:16:31.112Z,14.80
2023-02-18T07:18:59.296Z,14.84
2023-02-18T07:21:27.800Z,14.88
2023-02-18T07:23:55.861Z,14.85
2023-02-18T07:26:25.919Z,14.83
2023-02-18T07:28:55.154Z,14.72
2023-02-18T07:31:29.713Z,14.84
2023-02-18T07:33:58.306Z,14.84
2023-02-18T07:36:26.208Z,14.84
2023-02-18T07:38:59.553Z,14.73
2023-02-18T07:41:30.405Z,14.80
2023-02-18T07:43:59.423Z,14.88
2023-02-18T07:49:13.004Z,14.84
2023-02-18T07:51:55.797Z,14.81
2023-02-18T07:54:23.996Z,14.82
2023-02-18T07:56:54.966Z,14.73
2023-02-18T07:59:23.040Z,14.84
2023-02-18T08:01:51.024Z,14.84
2023-02-18T08:04:21.819Z,14.79
2023-02-18T08:06:50.809Z,14.81
2023-02-18T08:09:19.366Z,14.80
2023-02-18T08:11:48.811Z,14.71
2023-02-18T08:14:21.140Z,14.70
2023-02-18T08:16:49.667Z,14.74
2023-02-18T08:19:18.564Z,14.78
2023-02-18T08:21:50.386Z,14.67
2023-02-18T08:24:18.428Z,14.60
2023-02-18T08:26:59.924Z,14.72
2023-02-18T08:29:30.540Z,14.68
2023-02-18T08:31:59.609Z,14.71
2023-02-18T08:34:27.772Z,14.77
2023-02-18T08:36:58.596Z,14.80
2023-02-18T08:39:29.300Z,14.80
2023-02-18T08:41:58.335Z,14.90
2023-02-18T08:44:27.213Z,14.80
2023-02-18T08:46:57.032Z,14.74
2023-02-18T08:49:27.390Z,14.94
2023-02-18T08:51:55.996Z,14.84
2023-02-18T08:54:23.977Z,14.92
2023-02-18T08:56:55.798Z,14.89
2023-02-18T08:59:23.938Z,15.06
2023-02-18T09:01:52.420Z,15.04
2023-02-18T09:04:24.924Z,15.02
2023-02-18T09:06:53.072Z,15.05
2023-02-18T09:09:22.732Z,15.04
2023-02-18T09:11:52.875Z,15.13
2023-02-18T09:14:21.544Z,15.11
2023-02-18T09:16:50.668Z,15.12
2023-02-18T09:19:18.758Z,15.06
2023-02-18T09:21:49.961Z,15.07
2023-02-18T09:24:31.131Z,15.08
2023-02-18T09:26:59.451Z,15.13
2023-02-18T09:29:27.521Z,15.07
2023-02-18T09:31:58.252Z,15.07
2023-02-18T09:34:28.341Z,15.10
2023-02-18T09:36:59.700Z,15.04
2023-02-18T09:39:30.739Z,15.07
2023-02-18T09:42:00.013Z,14.98
2023-02-18T09:44:31.191Z,15.09
2023-02-18T09:47:13.688Z,15.05
2023-02-18T09:49:44.710Z,15.08
2023-02-18T09:52:27.669Z,15.10
2023-02-18T09:54:56.303Z,15.02
2023-02-18T09:57:25.603Z,14.94
2023-02-18T09:59:59.873Z,15.14
2023-02-18T10:02:34.440Z,15.17
2023-02-18T10:05:03.439Z,15.14
2023-02-18T10:08:21.658Z,15.14
2023-02-18T10:10:56.997Z,15.13
2023-02-18T10:13:40.872Z,14.96
2023-02-18T10:16:09.614Z,15.02
2023-02-18T10:18:42.395Z,15.18
2023-02-18T10:21:16.259Z,15.22
2023-02-18T10:23:53.795Z,15.23
2023-02-18T10:26:25.408Z,15.10
2023-02-18T10:29:06.034Z,15.15
2023-02-18T10:31:38.154Z,15.14
2023-02-18T10:34:08.992Z,15.14
2023-02-18T10:36:41.939Z,15.19
2023-02-18T10:39:39.543Z,15.21
2023-02-18T10:42:25.717Z,15.12
2023-02-18T10:45:01.524Z,15.15
2023-02-18T10:47:43.456Z,15.18
2023-02-18T10:50:14.995Z,15.03
2023-02-18T10:52:46.367Z,15.20
2023-02-18T10:55:22.602Z,15.17
2023-02-18T10:57:51.948Z,14.97
2023-02-18T11:00:24.006Z,15.05
2023-02-18T11:03:14.556Z,15.26
2023-02-18T11:05:45.489Z,15.17
2023-02-18T11:08:17.839Z,15.20
2023-02-18T11:10:49.963Z,15.23
2023-02-18T11:13:19.330Z,15.16
2023-02-18T11:16:19.261Z,15.24
2023-02-18T11:18:52.402Z,15.29
2023-02-18T11:21:30.403Z,15.17
2023-02-18T11:24:12.777Z,15.11
2023-02-18T11:26:44.294Z,15.26
2023-02-18T11:29:22.508Z,15.17
2023-02-18T11:31:55.104Z,15.17
2023-02-18T11:34:31.742Z,15.32
2023-02-18T11:37:25.844Z,15.41
2023-02-18T11:39:56.041Z,15.38
2023-02-18T11:42:27.691Z,15.55
2023-02-18T11:44:57.157Z,15.49
2023-02-18T11:47:32.815Z,15.40
2023-02-18T11:50:16.236Z,15.65
2023-02-18T11:52:59.825Z,15.56
2023-02-18T11:55:30.539Z,15.58
2023-02-18T11:58:02.410Z,15.57
2023-02-18T12:00:43.222Z,15.67
2023-02-18T12:03:42.551Z,15.83
2023-02-18T12:06:41.634Z,15.77
2023-02-18T12:09:52.733Z,15.79
2023-02-18T12:12:53.084Z,15.78
2023-02-18T12:15:38.232Z,15.87
2023-02-18T12:18:33.183Z,15.90
2023-02-18T12:21:42.802Z,15.76
2023-02-18T12:24:17.534Z,15.76
2023-02-18T12:26:54.958Z,15.85
2023-02-18T12:29:55.614Z,15.84
2023-02-18T12:32:36.155Z,15.93
2023-02-18T12:35:43.243Z,16.01
2023-02-18T12:38:32.399Z,15.95
2023-02-18T12:41:13.800Z,15.94
2023-02-18T12:43:50.344Z,15.98
2023-02-18T12:46:34.109Z,16.05
2023-02-18T12:49:31.609Z,16.02
2023-02-18T12:52:16.255Z,15.98
2023-02-18T12:54:58.418Z,15.98
2023-02-18T13:01:09.720Z,16.02
2023-02-18T13:04:19.617Z,16.04
2023-02-18T13:07:30.168Z,16.15
2023-02-18T13:10:46.308Z,16.29
2023-02-18T13:13:15.967Z,16.32
2023-02-18T13:15:55.355Z,16.23
2023-02-18T13:18:33.441Z,16.06
2023-02-18T13:21:06.130Z,16.04
2023-02-18T13:23:37.672Z,15.77
2023-02-18T13:26:09.577Z,15.83
2023-02-18T13:28:44.748Z,15.88
2023-02-18T13:31:38.805Z,15.72
2023-02-18T13:34:12.643Z,15.93
2023-02-18T13:37:02.624Z,16.01
2023-02-18T13:39:34.682Z,16.07
2023-02-18T13:42:38.356Z,15.96
2023-02-18T13:45:27.998Z,15.91
2023-02-18T13:48:11.437Z,15.79
2023-02-18T13:50:50.554Z,15.71
2023-02-18T13:53:25.455Z,15.51
2023-02-18T13:56:07.362Z,15.47
2023-02-18T13:58:44.494Z,15.44
2023-02-18T14:01:23.195Z,15.36
2023-02-18T14:03:56.336Z,15.24
2023-02-18T14:06:27.686Z,15.28
2023-02-18T14:09:19.722Z,15.30
2023-02-18T14:11:48.926Z,15.32
2023-02-18T14:14:46.801Z,15.27
2023-02-18T14:17:44.476Z,15.23
2023-02-18T14:20:33.618Z,15.22
2023-02-18T14:23:04.188Z,15.19
2023-02-18T14:25:41.821Z,15.26
2023-02-18T14:28:41.656Z,15.35
2023-02-18T14:31:34.465Z,15.37
2023-02-18T14:34:28.723Z,15.33
2023-02-18T14:37:07.694Z,15.28
2023-02-18T14:39:50.184Z,15.40
2023-02-18T14:42:39.547Z,15.39
2023-02-18T14:45:15.920Z,15.48
2023-02-18T14:48:08.127Z,15.42
2023-02-18T14:50:39.791Z,15.40
2023-02-18T14:53:29.007Z,15.45
2023-02-18T14:56:04.397Z,15.51
2023-02-18T14:58:35.280Z,15.46
2023-02-18T15:01:07.807Z,15.42
2023-02-18T15:04:09.558Z,15.67
2023-02-18T15:06:53.746Z,15.56
2023-02-18T15:09:23.709Z,15.59
2023-02-18T15:11:52.661Z,15.65
2023-02-18T15:14:22.277Z,15.58
2023-02-18T15:16:50.461Z,15.69
2023-02-18T15:19:37.126Z,15.63
2023-02-18T15:22:25.893Z,15.43
2023-02-18T15:25:04.256Z,15.55
2023-02-18T15:27:38.480Z,15.57
2023-02-18T15:30:19.411Z,15.51
2023-02-18T15:32:52.215Z,15.43
2023-02-18T15:35:23.148Z,15.42
2023-02-18T15:38:07.694Z,15.50
2023-02-18T15:40:52.881Z,15.43
2023-02-18T15:43:25.191Z,15.50
2023-02-18T15:45:54.763Z,15.48
2023-02-18T15:48:31.971Z,15.47
2023-02-18T15:51:16.354Z,15.36
2023-02-18T15:53:46.971Z,15.35
2023-02-18T15:56:21.514Z,15.34
2023-02-18T15:58:50.038Z,15.37
2023-02-18T16:01:29.844Z,15.32
2023-02-18T16:03:58.193Z,15.44
2023-02-18T16:06:39.937Z,15.29
2023-02-18T16:09:22.793Z,15.41
2023-02-18T16:11:53.095Z,15.34
2023-02-18T16:14:29.962Z,15.41
2023-02-18T16:17:11.100Z,15.40
2023-02-18T16:19:45.010Z,15.44
2023-02-18T16:22:35.586Z,15.32
2023-02-18T16:25:18.660Z,15.26
2023-02-18T16:27:55.760Z,15.43
2023-02-18T16:30:27.110Z,15.45
2023-02-18T16:32:55.509Z,15.51
2023-02-18T16:35:24.068Z,15.42
2023-02-18T16:37:57.872Z,15.34
2023-02-18T16:40:31.478Z,15.46
2023-02-18T16:43:04.553Z,15.42
2023-02-18T16:45:42.330Z,15.44
2023-02-18T16:48:15.011Z,15.41
2023-02-18T16:50:54.266Z,15.32
2023-02-18T16:53:29.705Z,15.28
2023-02-18T16:56:06.792Z,15.15
2023-02-18T16:58:37.687Z,15.30
2023-02-18T17:01:10.099Z,15.11
2023-02-18T17:03:52.618Z,15.11
2023-02-18T17:06:29.797Z,15.10
2023-02-18T17:12:25.228Z,15.04
2023-02-18T17:14:56.800Z,15.16
2023-02-18T17:17:25.181Z,15.29
2023-02-18T17:19:53.132Z,15.27
2023-02-18T17:22:21.250Z,15.26
2023-02-18T17:25:04.603Z,15.19
2023-02-18T17:27:40.994Z,15.20
2023-02-18T17:30:10.104Z,15.13
2023-02-18T17:32:43.101Z,15.11
2023-02-18T17:35:17.178Z,15.14
2023-02-18T17:37:51.463Z,15.10
2023-02-18T17:40:21.595Z,15.04
2023-02-18T17:42:50.163Z,15.00
2023-02-18T17:45:29.589Z,14.92
2023-02-18T17:47:57.986Z,14.95
2023-02-18T17:50:26.058Z,14.83
2023-02-18T17:52:56.682Z,15.00
2023-02-18T17:55:29.285Z,15.01
2023-02-18T17:57:59.378Z,14.98
2023-02-18T18:00:28.499Z,14.94
2023-02-18T18:02:56.533Z,15.00
2023-02-18T18:05:26.628Z,14.93
2023-02-18T18:07:59.095Z,14.98
2023-02-18T18:10:32.623Z,14.90
2023-02-18T18:13:02.248Z,14.96
2023-02-18T18:15:31.197Z,14.84
2023-02-18T18:18:02.078Z,14.96
2023-02-18T18:20:30.959Z,15.01
2023-02-18T18:23:02.546Z,15.00
2023-02-18T18:25:36.464Z,15.01
2023-02-18T18:28:04.988Z,15.01
2023-02-18T18:30:35.296Z,15.03
2023-02-18T18:33:03.596Z,15.01
2023-02-18T18:35:34.886Z,14.95
2023-02-18T18:38:03.253Z,14.97
2023-02-18T18:40:34.537Z,14.98
2023-02-18T18:43:03.328Z,14.90
2023-02-18T18:45:37.282Z,14.94
2023-02-18T18:48:08.989Z,14.94
2023-02-18T18:50:42.048Z,14.89
2023-02-18T18:53:19.122Z,14.77
2023-02-18T18:55:48.761Z,14.79
2023-02-18T18:58:20.948Z,14.66
2023-02-18T19:00:50.991Z,14.61
2023-02-18T19:03:19.291Z,14.55
2023-02-18T19:05:50.708Z,14.58
2023-02-18T19:08:20.642Z,14.54
2023-02-18T19:10:58.397Z,14.48
2023-02-18T19:13:27.489Z,14.44
2023-02-18T19:16:04.349Z,14.42
2023-02-18T19:18:33.795Z,14.32
2023-02-18T19:21:03.597Z,14.35
2023-02-18T19:23:35.240Z,14.27
2023-02-18T19:26:05.077Z,14.30
2023-02-18T19:28:38.671Z,14.24
2023-02-18T19:31:10.149Z,14.25
2023-02-18T19:33:46.861Z,14.21
2023-02-18T19:36:18.830Z,14.19
2023-02-18T19:38:52.596Z,14.21
2023-02-18T19:41:24.871Z,14.20
2023-02-18T19:43:52.873Z,14.20
2023-02-18T19:46:21.373Z,14.13
2023-02-18T19:48:51.542Z,14.07
2023-02-18T19:51:23.289Z,14.18
2023-02-18T19:53:51.579Z,14.11
2023-02-18T19:56:25.699Z,14.07
2023-02-18T19:59:03.896Z,14.04
2023-02-18T20:01:31.920Z,14.10
2023-02-18T20:04:02.972Z,14.03
2023-02-18T20:06:31.033Z,14.05
2023-02-18T20:08:59.038Z,14.11
2023-02-18T20:11:28.386Z,14.11
2023-02-18T20:13:56.338Z,14.07
2023-02-18T20:16:52.918Z,14.07
2023-02-18T20:19:21.829Z,13.98
2023-02-18T20:21:49.808Z,13.98
2023-02-18T20:24:18.065Z,13.91
2023-02-18T20:26:50.845Z,13.97
2023-02-18T20:29:19.757Z,13.91
2023-02-18T20:31:52.728Z,13.92
2023-02-18T20:34:26.909Z,13.97
2023-02-18T20:36:54.895Z,13.98
2023-02-18T20:39:25.204Z,13.90
2023-02-18T20:41:54.597Z,13.95
2023-02-18T20:44:24.350Z,13.87
2023-02-18T20:48:04.020Z,13.93
2023-02-18T20:50:31.954Z,13.85
2023-02-18T20:52:59.879Z,13.89
2023-02-18T20:55:37.057Z,13.84
2023-02-18T20:58:38.029Z,13.81
2023-02-18T21:06:00.622Z,13.76
2023-02-18T21:13:05.620Z,13.73
2023-02-18T21:15:39.244Z,13.71
2023-02-18T21:18:10.047Z,13.78
2023-02-18T21:24:48.148Z,13.72
2023-02-18T21:27:17.967Z,13.69
2023-02-18T21:30:29.302Z,13.78
2023-02-18T21:37:32.579Z,13.65
2023-02-18T21:41:00.762Z,13.76
2023-02-18T21:47:11.347Z,13.62
2023-02-18T21:49:39.639Z,13.56
2023-02-18T21:52:40.707Z,13.78
2023-02-18T21:55:08.938Z,13.74
2023-02-18T21:57:37.052Z,13.75
2023-02-18T22:00:19.996Z,13.80
2023-02-18T22:02:49.374Z,13.74
2023-02-18T22:05:18.573Z,13.78
2023-02-18T22:07:55.385Z,13.75
2023-02-18T22:10:23.529Z,13.74
2023-02-18T22:12:55.959Z,13.74
2023-02-18T22:15:24.470Z,13.73
2023-02-18T22:17:52.705Z,13.67
2023-02-18T22:20:21.306Z,13.59
2023-02-18T22:22:50.664Z,13.46
2023-02-18T22:25:26.364Z,13.59
2023-02-18T22:27:56.804Z,13.61
2023-02-18T22:30:27.289Z,13.56
2023-02-18T22:32:55.604Z,13.60
2023-02-18T22:35:26.845Z,13.50
2023-02-18T22:37:57.811Z,13.53
2023-02-18T22:40:28.473Z,13.65
2023-02-18T22:42:56.560Z,13.61
2023-02-18T22:45:24.771Z,13.66
2023-02-18T22:47:53.161Z,13.69
2023-02-18T22:50:21.135Z,13.72
2023-02-18T22:52:49.366Z,13.71
2023-02-18T22:55:18.915Z,13.55
2023-02-18T22:57:47.075Z,13.74
2023-02-18T23:00:16.423Z,13.73
2023-02-18T23:02:50.988Z,13.72
2023-02-18T23:05:21.175Z,13.77
2023-02-18T23:07:50.528Z,13.73
2023-02-18T23:10:20.055Z,13.79
2023-02-18T23:12:50.850Z,13.75
2023-02-18T23:15:19.008Z,13.79
2023-02-18T23:17:52.466Z,13.76
2023-02-18T23:20:41.454Z,13.74
2023-02-18T23:23:14.119Z,13.74
2023-02-18T23:25:44.299Z,13.72
2023-02-18T23:28:17.205Z,13.72
2023-02-18T23:30:45.350Z,13.70
2023-02-18T23:33:15.729Z,13.65
2023-02-18T23:35:44.001Z,13.66
2023-02-18T23:38:14.321Z,13.54
2023-02-18T23:40:43.868Z,13.62
2023-02-18T23:43:12.036Z,13.60
2023-02-18T23:45:40.272Z,13.57
2023-02-18T23:48:09.638Z,13.60
2023-02-18T23:50:37.661Z,13.57
2023-02-18T23:53:07.350Z,13.53
2023-02-18T23:55:46.070Z,13.54
2023-02-18T23:58:14.168Z,13.53
